Time;durP1;ratioP1;P1;durP2;ratioP2;P2;SDS_P1;SDS_P2;PMS_P1;PMS_P2;Temp;Humidity;BMP_temperature;BMP_pressure;BME280_temperature;BME280_humidity;BME280_pressure;Samples;Min_cycle;Max_cycle;Signal;HPM_P1;HPM_P2
2022/09/24 00:01:24;;;;;;;27.33;16.48;;;;;;;9.01;65.59;98592.31;5005849;28;20032;-72
2022/09/24 00:03:53;;;;;;;27.38;16.40;;;;;;;8.98;66.53;98587.41;5007061;28;20038;-72
2022/09/24 00:06:20;;;;;;;26.17;16.37;;;;;;;8.96;65.99;98589.63;5009501;28;20052;-72
2022/09/24 00:08:47;;;;;;;27.80;15.95;;;;;;;8.94;66.03;98594.56;5005602;28;20774;-71
2022/09/24 00:11:13;;;;;;;25.17;14.80;;;;;;;8.89;66.60;98587.19;5005520;28;20209;-72
2022/09/24 00:13:40;;;;;;;22.60;15.43;;;;;;;8.88;66.50;98592.97;5005389;28;20525;-71
2022/09/24 00:16:11;;;;;;;25.55;15.90;;;;;;;8.89;66.52;98587.19;5003715;28;20022;-71
2022/09/24 00:18:37;;;;;;;32.17;18.35;;;;;;;8.91;66.89;98585.00;5006990;28;20017;-72
2022/09/24 00:21:21;;;;;;;35.17;20.05;;;;;;;8.92;66.26;98575.69;5015979;28;20025;-72
2022/09/24 00:23:55;;;;;;;32.40;18.35;;;;;;;8.91;66.09;98576.78;5009412;28;20025;-71
2022/09/24 00:29:07;;;;;;;25.70;14.85;;;;;;;8.85;65.59;98569.72;5009921;28;20064;-71
2022/09/24 00:31:33;;;;;;;23.95;14.75;;;;;;;8.82;66.11;98573.00;5011367;28;20376;-71
2022/09/24 00:33:59;;;;;;;25.20;14.82;;;;;;;8.80;66.61;98572.47;5011343;28;20036;-72
2022/09/24 00:36:26;;;;;;;25.55;14.95;;;;;;;8.76;65.87;98568.69;5011620;28;20048;-71
2022/09/24 00:38:54;;;;;;;28.13;15.98;;;;;;;8.69;66.02;98563.50;5012674;28;20065;-72
2022/09/24 00:41:22;;;;;;;25.13;15.43;;;;;;;8.66;66.36;98561.34;5012670;28;20705;-71
2022/09/24 00:43:48;;;;;;;26.45;15.57;;;;;;;8.63;66.32;98564.63;5012379;28;20041;-71
2022/09/24 00:46:29;;;;;;;25.20;16.20;;;;;;;8.60;65.87;98562.44;5018792;28;20448;-71
2022/09/24 00:49:03;;;;;;;27.85;17.30;;;;;;;8.57;66.28;98557.53;5021214;28;20053;-71
2022/09/24 00:51:32;;;;;;;27.10;16.17;;;;;;;8.54;66.46;98558.94;5015611;28;20474;-72
2022/09/24 00:54:06;;;;;;;23.20;15.73;;;;;;;8.50;66.19;98557.84;5011945;28;20360;-72
2022/09/24 00:56:35;;;;;;;26.92;16.17;;;;;;;8.44;66.08;98550.75;5014779;28;20115;-71
2022/09/24 00:59:03;;;;;;;23.25;15.85;;;;;;;8.40;66.10;98546.94;5012206;28;20458;-72
2022/09/24 01:01:29;;;;;;;27.65;16.52;;;;;;;8.34;66.33;98541.50;5012624;28;20482;-72
2022/09/24 01:03:56;;;;;;;25.23;16.10;;;;;;;8.28;66.24;98537.16;5024265;28;20068;-71
2022/09/24 01:06:23;;;;;;;30.55;17.23;;;;;;;8.24;65.96;98535.25;5029028;28;20018;-72
2022/09/24 01:08:50;;;;;;;28.10;17.25;;;;;;;8.19;66.21;98541.56;5032202;28;20152;-72
2022/09/24 01:11:41;;;;;;;34.97;19.13;;;;;;;8.13;66.58;98537.19;5032118;28;20497;-72
2022/09/24 01:14:10;;;;;;;34.90;18.30;;;;;;;8.06;66.34;98537.50;5030556;28;20055;-72
2022/09/24 01:16:38;;;;;;;31.23;18.08;;;;;;;8.01;66.41;98530.13;5031940;28;20033;-72
2022/09/24 01:19:12;;;;;;;33.42;17.65;;;;;;;7.97;66.91;98522.78;5031471;28;20040;-71
2022/09/24 01:21:54;;;;;;;30.48;18.67;;;;;;;7.92;66.77;98523.63;5031655;28;20030;-72
2022/09/24 01:24:39;;;;;;;32.42;18.52;;;;;;;7.86;66.81;98522.78;5027282;28;20462;-71
2022/09/24 01:27:10;;;;;;;29.67;18.48;;;;;;;7.80;66.49;98517.63;5008978;28;20478;-72
2022/09/24 01:29:46;;;;;;;30.52;17.80;;;;;;;7.77;66.56;98523.63;5020377;28;20532;-72
2022/09/24 01:32:22;;;;;;;30.48;18.45;;;;;;;7.75;66.77;98519.28;5031456;28;20021;-72
2022/09/24 01:34:54;;;;;;;28.15;16.98;;;;;;;7.71;66.87;98518.19;5031247;28;20095;-72
2022/09/24 01:37:22;;;;;;;26.83;16.77;;;;;;;7.69;66.99;98519.56;5024026;28;20026;-72
2022/09/24 01:39:50;;;;;;;26.70;17.05;;;;;;;7.63;66.84;98515.19;5010641;28;20038;-72
2022/09/24 01:42:17;;;;;;;30.98;17.65;;;;;;;7.56;66.96;98516.28;5011389;28;20080;-72
2022/09/24 01:44:43;;;;;;;27.15;16.50;;;;;;;7.53;66.78;98510.59;5013986;28;20030;-72
2022/09/24 01:47:12;;;;;;;29.92;16.88;;;;;;;7.53;67.14;98514.13;5015682;28;20114;-71
2022/09/24 01:49:38;;;;;;;29.98;18.15;;;;;;;7.50;67.09;98502.94;5007870;28;20478;-72
2022/09/24 01:52:09;;;;;;;28.95;18.10;;;;;;;7.45;66.96;98504.59;5010459;28;20057;-72
2022/09/24 01:54:40;;;;;;;31.33;17.70;;;;;;;7.41;66.84;98503.50;5009296;28;20037;-72
2022/09/24 01:57:18;;;;;;;29.80;17.60;;;;;;;7.37;67.02;98507.03;5011810;28;20510;-71
2022/09/24 02:00:08;;;;;;;31.17;17.88;;;;;;;7.35;67.14;98501.03;5019096;28;20076;-71
2022/09/24 02:02:44;;;;;;;31.48;18.92;;;;;;;7.31;67.07;98506.22;5015203;28;20039;-71
2022/09/24 02:05:30;;;;;;;32.03;18.92;;;;;;;7.30;67.25;98499.97;5000165;28;20030;-72
2022/09/24 02:08:08;;;;;;;32.08;19.25;;;;;;;7.28;67.34;98504.03;5010123;28;20044;-72
2022/09/24 02:10:41;;;;;;;31.10;18.60;;;;;;;7.23;67.20;98499.41;5005863;28;20037;-72
2022/09/24 02:13:12;;;;;;;26.92;16.55;;;;;;;7.23;67.44;98506.75;5008894;28;20061;-72
2022/09/24 02:15:41;;;;;;;26.80;16.48;;;;;;;7.21;67.34;98500.75;5009062;28;20475;-72
2022/09/24 02:18:11;;;;;;;24.00;16.35;;;;;;;7.21;67.44;98508.94;5009431;28;20057;-72
2022/09/24 02:20:40;;;;;;;23.00;14.82;;;;;;;7.21;67.99;98514.41;5007307;28;20022;-72
2022/09/24 02:23:07;;;;;;;21.65;14.43;;;;;;;7.20;67.61;98524.50;5006162;28;20030;-72
2022/09/24 02:26:05;;;;;;;23.85;14.43;;;;;;;7.20;67.73;98515.50;5009844;28;20018;-72
2022/09/24 02:28:32;;;;;;;22.48;13.90;;;;;;;7.22;67.61;98516.03;4984878;28;20133;-72
2022/09/24 02:31:03;;;;;;;23.45;14.65;;;;;;;7.22;67.79;98507.84;5009173;28;20088;-72
2022/09/24 02:36:16;;;;;;;24.05;14.55;;;;;;;7.24;67.80;98517.41;5007837;28;20037;-72
2022/09/24 02:38:41;;;;;;;21.98;14.38;;;;;;;7.24;68.25;98506.50;5013982;28;20014;-72
2022/09/24 02:41:07;;;;;;;23.05;14.02;;;;;;;7.25;67.98;98505.41;5006247;28;20124;-71
2022/09/24 02:43:34;;;;;;;23.20;14.38;;;;;;;7.25;67.86;98510.03;5009193;28;20049;-72
2022/09/24 02:46:00;;;;;;;23.42;14.43;;;;;;;7.26;67.85;98508.94;5003144;28;20034;-72
2022/09/24 02:48:25;;;;;;;23.73;14.68;;;;;;;7.29;67.77;98500.22;5009220;28;20025;-72
2022/09/24 02:50:51;;;;;;;23.80;14.40;;;;;;;7.29;67.91;98494.75;5006813;28;20382;-71
2022/09/24 02:53:16;;;;;;;27.05;14.85;;;;;;;7.28;67.86;98491.22;5008419;28;20026;-72
2022/09/24 02:55:42;;;;;;;21.73;14.15;;;;;;;7.27;68.43;98496.94;5008954;28;20026;-73
2022/09/24 02:58:07;;;;;;;21.90;14.48;;;;;;;7.27;67.86;98505.13;5011949;28;20120;-72
2022/09/24 03:00:32;;;;;;;23.33;14.32;;;;;;;7.26;67.90;98487.97;5008927;28;20018;-72
2022/09/24 03:02:58;;;;;;;23.50;14.75;;;;;;;7.28;68.02;98491.22;5008697;28;20049;-72
2022/09/24 03:05:23;;;;;;;23.67;15.38;;;;;;;7.28;68.05;98490.41;5009222;28;20470;-72
2022/09/24 03:07:49;;;;;;;25.10;15.63;;;;;;;7.28;67.92;98482.22;5009128;28;20022;-72
2022/09/24 03:10:14;;;;;;;22.33;14.95;;;;;;;7.28;68.13;98487.66;5008923;28;20042;-72
2022/09/24 03:12:42;;;;;;;23.55;15.70;;;;;;;7.27;68.09;98473.22;5008789;28;20468;-72
2022/09/24 03:15:08;;;;;;;20.15;14.63;;;;;;;7.27;68.24;98472.38;5008122;28;20030;-72
2022/09/24 03:17:34;;;;;;;27.67;15.80;;;;;;;7.26;68.12;98482.50;5008556;28;20558;-72
2022/09/24 03:19:59;;;;;;;23.98;15.07;;;;;;;7.26;68.22;98484.41;5008877;28;20032;-72
2022/09/24 03:22:24;;;;;;;23.27;14.55;;;;;;;7.25;68.38;98489.03;5009033;28;20033;-73
2022/09/24 03:24:50;;;;;;;18.33;12.65;;;;;;;7.25;68.45;98482.75;5008921;28;20026;-72
2022/09/24 03:27:15;;;;;;;21.92;13.70;;;;;;;7.26;68.85;98485.22;5008637;28;20042;-71
2022/09/24 03:32:25;;;;;;;22.45;13.73;;;;;;;7.28;67.99;98476.75;5005995;28;20554;-73
2022/09/24 03:34:51;;;;;;;23.52;13.57;;;;;;;7.26;68.37;98479.78;5007817;28;20430;-73
2022/09/24 03:37:16;;;;;;;24.08;14.00;;;;;;;7.29;68.62;98483.84;5007000;28;20032;-72
2022/09/24 03:39:41;;;;;;;20.55;13.88;;;;;;;7.32;68.25;98480.56;5007942;28;20109;-72
2022/09/24 03:42:07;;;;;;;18.85;12.45;;;;;;;7.33;68.60;98476.75;5008773;28;20172;-72
2022/09/24 03:44:32;;;;;;;21.17;13.43;;;;;;;7.33;68.31;98474.03;5008941;28;20485;-72
2022/09/24 03:46:57;;;;;;;22.88;14.15;;;;;;;7.35;68.30;98479.19;5008047;28;20435;-72
2022/09/24 03:49:23;;;;;;;25.63;16.33;;;;;;;7.35;68.35;98482.75;5010019;28;20029;-73
2022/09/24 03:51:49;;;;;;;21.45;13.85;;;;;;;7.37;68.33;98490.66;5008410;28;20079;-72
2022/09/24 03:54:15;;;;;;;20.52;13.60;;;;;;;7.33;68.07;98489.59;5008173;28;20034;-72
2022/09/24 03:56:41;;;;;;;23.25;14.15;;;;;;;7.30;68.54;98486.31;5008778;28;20026;-72
2022/09/24 03:59:09;;;;;;;37.33;20.65;;;;;;;7.28;68.00;98483.03;5007729;28;20536;-72
2022/09/24 04:01:36;;;;;;;39.47;21.88;;;;;;;7.27;68.38;98486.88;5010780;28;20022;-72
2022/09/24 04:04:02;;;;;;;26.38;17.90;;;;;;;7.25;68.11;98485.47;5005679;28;20041;-72
2022/09/24 04:06:28;;;;;;;22.63;15.52;;;;;;;7.23;68.31;98474.88;5008935;28;20490;-72
2022/09/24 04:08:54;;;;;;;22.05;14.02;;;;;;;7.23;68.22;98468.56;5009065;28;20018;-71
2022/09/24 04:11:20;;;;;;;23.27;13.70;;;;;;;7.22;68.31;98472.38;5008024;28;20393;-72
2022/09/24 04:13:45;;;;;;;20.77;14.55;;;;;;;7.19;68.35;98470.22;5009167;28;20031;-72
2022/09/24 04:16:11;;;;;;;21.73;13.75;;;;;;;7.18;68.29;98468.56;5008457;28;20030;-72
2022/09/24 04:18:36;;;;;;;20.20;13.30;;;;;;;7.14;68.01;98465.59;5010651;28;20478;-72
2022/09/24 04:21:01;;;;;;;21.63;13.80;;;;;;;7.13;68.08;98461.22;5008213;28;20026;-71
2022/09/24 04:23:29;;;;;;;22.67;13.38;;;;;;;7.11;68.20;98455.22;5008401;28;20459;-72
2022/09/24 04:25:55;;;;;;;19.33;12.55;;;;;;;7.07;68.27;98463.13;5008079;28;20049;-72
2022/09/24 04:28:20;;;;;;;18.92;13.00;;;;;;;7.05;67.86;98459.88;5009193;28;20026;-72
2022/09/24 04:30:46;;;;;;;18.75;12.85;;;;;;;7.03;68.07;98462.06;5011612;28;20489;-71
2022/09/24 04:33:11;;;;;;;18.50;12.57;;;;;;;7.01;68.27;98461.50;5011419;28;20049;-72
2022/09/24 04:35:37;;;;;;;20.40;13.02;;;;;;;6.99;68.30;98458.22;5011093;28;20029;-72
2022/09/24 04:38:03;;;;;;;21.38;12.68;;;;;;;6.98;68.35;98456.59;5009524;28;20034;-72
2022/09/24 04:40:29;;;;;;;24.45;14.18;;;;;;;6.99;68.40;98448.13;5010571;28;20028;-73
2022/09/24 04:42:55;;;;;;;26.88;14.95;;;;;;;7.01;68.66;98450.59;5010411;28;20030;-72
2022/09/24 04:45:23;;;;;;;22.70;13.70;;;;;;;7.03;68.41;98462.06;5011756;28;20053;-72
2022/09/24 04:47:56;;;;;;;24.83;13.85;;;;;;;7.06;68.64;98458.78;5010346;28;20072;-72
2022/09/24 04:50:27;;;;;;;20.55;12.95;;;;;;;7.08;68.42;98462.06;5010841;28;20030;-72
2022/09/24 04:52:54;;;;;;;19.05;12.23;;;;;;;7.10;68.60;98450.84;5010248;28;20510;-71
2022/09/24 04:55:20;;;;;;;20.08;12.40;;;;;;;7.13;68.89;98440.19;5010534;28;20489;-72
2022/09/24 04:57:46;;;;;;;20.90;12.35;;;;;;;7.18;68.68;98450.31;5004758;28;20505;-72
2022/09/24 05:00:16;;;;;;;20.33;12.13;;;;;;;7.21;68.59;98449.75;5007454;28;20032;-72
2022/09/24 05:02:42;;;;;;;20.42;12.05;;;;;;;7.24;68.86;98443.75;5010181;28;20057;-72
2022/09/24 05:05:08;;;;;;;20.35;12.70;;;;;;;7.27;68.73;98445.94;5010910;28;20037;-72
2022/09/24 05:07:34;;;;;;;18.80;11.68;;;;;;;7.30;68.75;98441.84;5010364;28;20022;-72
2022/09/24 05:09:59;;;;;;;21.40;12.55;;;;;;;7.30;68.75;98441.84;5009999;28;20714;-71
2022/09/24 05:12:25;;;;;;;20.38;12.80;;;;;;;7.34;68.83;98442.91;5009847;28;20069;-72
2022/09/24 05:14:50;;;;;;;21.33;12.45;;;;;;;7.39;68.70;98440.19;5010293;28;20033;-72
2022/09/24 05:17:16;;;;;;;20.15;11.80;;;;;;;7.42;68.79;98441.53;5010772;28;20029;-72
2022/09/24 05:19:41;;;;;;;20.25;12.35;;;;;;;7.45;68.91;98447.28;5009135;28;20109;-71
2022/09/24 05:22:07;;;;;;;23.75;13.55;;;;;;;7.48;68.94;98448.63;5010541;28;20026;-72
2022/09/24 05:24:32;;;;;;;25.23;14.52;;;;;;;7.52;68.95;98440.72;5010953;28;20026;-72
2022/09/24 05:27:09;;;;;;;23.95;13.77;;;;;;;7.54;68.94;98441.25;5010651;28;20026;-72
2022/09/24 05:29:36;;;;;;;25.10;14.32;;;;;;;7.57;68.85;98446.97;5009403;28;20156;-72
2022/09/24 05:32:04;;;;;;;22.35;13.60;;;;;;;7.59;68.99;98441.22;5010268;28;20033;-72
2022/09/24 05:34:30;;;;;;;22.85;14.73;;;;;;;7.62;69.17;98445.31;5010796;28;20018;-72
2022/09/24 05:36:55;;;;;;;23.40;14.57;;;;;;;7.63;68.93;98447.75;5011025;28;20503;-72
2022/09/24 05:39:21;;;;;;;24.27;15.38;;;;;;;7.67;68.80;98446.13;5009808;28;20243;-72
2022/09/24 05:41:46;;;;;;;23.48;15.02;;;;;;;7.68;69.31;98445.03;5009801;28;20026;-71
2022/09/24 05:44:12;;;;;;;28.00;15.63;;;;;;;7.73;69.29;98449.66;5010023;28;20026;-71
2022/09/24 05:46:37;;;;;;;25.90;15.98;;;;;;;7.79;68.72;98454.00;5009085;28;20455;-71
2022/09/24 05:49:03;;;;;;;25.38;15.80;;;;;;;7.83;68.91;98451.53;5009720;28;20022;-71
2022/09/24 05:51:28;;;;;;;27.95;16.23;;;;;;;7.86;69.25;98456.44;5009644;28;20100;-72
2022/09/24 05:53:53;;;;;;;26.90;16.48;;;;;;;7.86;69.20;98451.00;5008942;28;20755;-71
2022/09/24 05:56:19;;;;;;;25.83;16.17;;;;;;;7.90;69.34;98455.59;5008311;28;20088;-72
2022/09/24 05:58:48;;;;;;;31.05;18.05;;;;;;;7.93;69.11;98448.78;5006119;28;20026;-71
2022/09/24 06:01:14;;;;;;;30.52;18.55;;;;;;;7.97;69.18;98449.84;5010135;28;20014;-72
2022/09/24 06:03:39;;;;;;;28.48;17.83;;;;;;;8.01;68.77;98445.44;5005903;28;20546;-72
2022/09/24 06:06:05;;;;;;;27.73;17.15;;;;;;;8.04;69.21;98444.88;5003436;28;20026;-71
2022/09/24 06:08:32;;;;;;;23.67;14.90;;;;;;;8.08;68.74;98447.91;5005790;28;20026;-72
2022/09/24 06:11:05;;;;;;;23.35;14.75;;;;;;;8.12;68.83;98448.16;5008761;28;20038;-72
2022/09/24 06:13:33;;;;;;;21.52;14.70;;;;;;;8.16;69.20;98450.03;5009297;28;20038;-71
2022/09/24 06:16:07;;;;;;;20.83;13.23;;;;;;;8.23;69.54;98446.16;5009900;28;20597;-71
2022/09/24 06:18:38;;;;;;;21.65;14.27;;;;;;;8.28;69.47;98444.25;5009849;28;20030;-72
2022/09/24 06:21:16;;;;;;;24.33;13.60;;;;;;;8.32;68.97;98448.06;5009985;28;20034;-72
2022/09/24 06:23:44;;;;;;;23.08;14.05;;;;;;;8.35;69.22;98452.94;5011599;28;20345;-72
2022/09/24 06:26:11;;;;;;;23.13;14.85;;;;;;;8.39;68.85;98461.41;5010385;28;20743;-72
2022/09/24 06:28:37;;;;;;;22.25;14.25;;;;;;;8.42;69.69;98458.09;5009728;28;20080;-71
2022/09/24 06:31:03;;;;;;;21.88;14.30;;;;;;;8.47;69.31;98462.72;5009921;28;20029;-71
2022/09/24 06:33:29;;;;;;;21.92;14.45;;;;;;;8.52;69.37;98459.97;5009427;28;20033;-71
2022/09/24 06:35:59;;;;;;;27.88;17.33;;;;;;;8.59;69.21;98463.22;5009736;28;20473;-72
2022/09/24 06:38:24;;;;;;;23.98;15.63;;;;;;;8.68;69.01;98466.16;5009663;28;20026;-71
2022/09/24 06:40:49;;;;;;;27.65;16.90;;;;;;;8.76;69.98;98457.38;5009837;28;20030;-71
2022/09/24 06:43:16;;;;;;;32.63;17.65;;;;;;;8.88;69.24;98462.47;5008866;28;20041;-72
2022/09/24 06:45:43;;;;;;;20.20;14.15;;;;;;;8.97;69.60;98454.47;5008838;28;20375;-71
2022/09/24 06:48:11;;;;;;;22.30;13.73;;;;;;;9.02;69.64;98456.38;5008554;28;20083;-72
2022/09/24 06:50:39;;;;;;;18.98;13.73;;;;;;;9.08;69.76;98456.03;5006666;28;20053;-72
2022/09/24 06:53:05;;;;;;;31.65;18.52;;;;;;;9.14;69.18;98453.25;5010371;28;20061;-72
2022/09/24 06:55:32;;;;;;;23.52;14.20;;;;;;;9.22;69.19;98455.38;5011470;28;20390;-72
2022/09/24 06:58:06;;;;;;;20.30;14.07;;;;;;;9.30;69.51;98451.19;5019233;28;20034;-72
2022/09/24 07:00:33;;;;;;;22.27;14.50;;;;;;;9.39;69.16;98442.06;5024659;28;20080;-72
2022/09/24 07:02:58;;;;;;;21.38;15.75;;;;;;;9.48;69.92;98444.16;5009032;28;20033;-72
2022/09/24 07:05:24;;;;;;;21.67;16.05;;;;;;;9.60;69.29;98446.50;5009613;28;20053;-73
2022/09/24 07:07:49;;;;;;;28.50;19.50;;;;;;;9.70;70.02;98454.63;5007543;28;20072;-73
2022/09/24 07:10:15;;;;;;;23.90;17.15;;;;;;;9.83;70.00;98453.09;5013787;28;20504;-74
2022/09/24 07:12:41;;;;;;;26.08;18.13;;;;;;;9.91;69.94;98457.16;5009504;28;20662;-74
2022/09/24 07:15:07;;;;;;;23.25;16.60;;;;;;;10.00;69.94;98454.56;5018569;28;20097;-74
2022/09/24 07:17:33;;;;;;;25.45;16.58;;;;;;;10.11;69.71;98453.34;5011539;28;20391;-73
2022/09/24 07:19:58;;;;;;;57.25;31.05;;;;;;;10.22;70.08;98456.75;5014620;28;20072;-73
2022/09/24 07:22:24;;;;;;;31.67;21.40;;;;;;;10.32;69.72;98458.53;5026592;28;20057;-73
2022/09/24 07:24:51;;;;;;;23.05;16.02;;;;;;;10.39;69.68;98461.78;5028237;28;20579;-73
2022/09/24 07:27:18;;;;;;;22.15;14.57;;;;;;;10.45;70.09;98466.09;5029146;28;20025;-73
2022/09/24 07:29:43;;;;;;;21.70;13.60;;;;;;;10.53;69.93;98470.09;5009623;28;20073;-73
2022/09/24 07:32:09;;;;;;;20.35;13.52;;;;;;;10.63;70.04;98478.16;5012025;28;20501;-73
2022/09/24 07:34:34;;;;;;;19.92;13.75;;;;;;;10.74;70.10;98469.81;5008404;28;20048;-71
2022/09/24 07:37:01;;;;;;;24.35;15.38;;;;;;;10.85;69.29;98468.50;5005512;28;20041;-71
2022/09/24 07:39:27;;;;;;;19.58;12.27;;;;;;;10.94;69.50;98466.72;5008734;28;20041;-72
2022/09/24 07:41:53;;;;;;;22.10;13.98;;;;;;;11.01;69.07;98467.19;5008608;28;20022;-71
2022/09/24 07:44:22;;;;;;;21.48;12.63;;;;;;;11.11;69.73;98474.41;5006884;28;20037;-72
2022/09/24 07:46:48;;;;;;;24.30;12.45;;;;;;;11.21;68.99;98476.19;5012771;28;20386;-72
2022/09/24 07:49:14;;;;;;;22.15;12.20;;;;;;;11.30;69.67;98479.06;5008557;28;20032;-72
2022/09/24 07:51:40;;;;;;;22.55;11.65;;;;;;;11.38;69.39;98477.56;5006084;28;20022;-71
2022/09/24 07:54:05;;;;;;;21.48;10.98;;;;;;;11.47;69.03;98475.75;5013995;28;20113;-71
2022/09/24 07:56:34;;;;;;;18.50;11.60;;;;;;;11.56;69.09;98468.47;5010058;28;20038;-71
2022/09/24 07:58:59;;;;;;;22.13;11.55;;;;;;;11.66;69.50;98472.13;5014897;28;20041;-71
2022/09/24 08:01:26;;;;;;;31.05;15.40;;;;;;;11.72;68.99;98484.63;5017022;28;20030;-70
2022/09/24 08:03:51;;;;;;;24.80;15.40;;;;;;;11.77;68.89;98476.31;5011068;28;20140;-72
2022/09/24 08:06:18;;;;;;;22.13;12.73;;;;;;;11.83;68.90;98477.00;5015129;28;20597;-69
2022/09/24 08:08:43;;;;;;;31.23;15.88;;;;;;;11.89;68.42;98475.81;5021364;28;20034;-71
2022/09/24 08:11:15;;;;;;;20.45;11.15;;;;;;;11.92;68.66;98475.19;5014253;28;20065;-72
2022/09/24 08:13:41;;;;;;;22.45;13.25;;;;;;;11.99;67.95;98472.06;5015325;28;20034;-73
2022/09/24 08:16:06;;;;;;;28.38;15.43;;;;;;;12.04;68.25;98463.72;5008630;28;20144;-73
2022/09/24 08:18:32;;;;;;;61.78;41.65;;;;;;;12.11;68.43;98469.63;5009165;28;20034;-73
2022/09/24 08:21:02;;;;;;;43.28;29.77;;;;;;;12.21;68.32;98472.16;5028369;28;20025;-73
2022/09/24 08:23:27;;;;;;;50.97;30.13;;;;;;;12.29;67.88;98470.63;5033302;28;20377;-73
2022/09/24 08:25:54;;;;;;;55.65;32.47;;;;;;;12.33;68.10;98474.41;5031969;28;20096;-71
2022/09/24 08:28:19;;;;;;;33.58;18.52;;;;;;;12.42;67.84;98468.16;5032443;28;20521;-71
2022/09/24 08:30:45;;;;;;;23.60;11.10;;;;;;;12.48;67.65;98470.50;5033774;28;20057;-71
2022/09/24 08:33:11;;;;;;;16.40;9.63;;;;;;;12.56;67.34;98476.41;5033111;28;20021;-71
2022/09/24 08:35:39;;;;;;;13.43;8.23;;;;;;;12.61;67.50;98474.38;5033139;28;20027;-71
2022/09/24 08:38:05;;;;;;;14.27;8.35;;;;;;;12.66;67.19;98474.22;5033531;28;20485;-72
2022/09/24 08:40:57;;;;;;;13.20;7.50;;;;;;;12.71;67.11;98469.72;5033818;28;20021;-71
2022/09/24 08:43:44;;;;;;;12.75;7.88;;;;;;;12.74;66.65;98464.44;5004242;28;20187;-71
2022/09/24 08:49:02;;;;;;;8.55;5.57;;;;;;;12.85;66.48;98466.94;5031756;28;20094;-71
2022/09/24 08:51:36;;;;;;;11.15;6.38;;;;;;;12.89;66.15;98462.44;5032882;28;20025;-71
2022/09/24 08:54:08;;;;;;;10.18;5.90;;;;;;;12.94;66.09;98465.06;5019474;28;20034;-72
2022/09/24 08:56:37;;;;;;;8.90;5.90;;;;;;;12.96;65.91;98457.31;5023050;28;20037;-71
2022/09/24 08:59:22;;;;;;;11.00;6.60;;;;;;;12.94;65.55;98459.56;5024012;28;20033;-71
2022/09/24 09:01:57;;;;;;;9.10;5.70;;;;;;;12.97;65.32;98450.69;5006939;28;20140;-72
2022/09/24 09:04:23;;;;;;;12.23;7.45;;;;;;;13.03;65.45;98443.13;5015167;28;20036;-71
2022/09/24 09:07:19;;;;;;;11.75;7.50;;;;;;;13.10;65.78;98432.47;5007232;28;20022;-72
2022/09/24 09:10:15;;;;;;;22.70;10.45;;;;;;;13.21;65.73;98430.28;5016005;28;20057;-72
2022/09/24 09:13:10;;;;;;;19.42;9.85;;;;;;;13.32;65.68;98430.84;5014178;28;20525;-72
2022/09/24 09:15:41;;;;;;;14.68;8.02;;;;;;;13.42;65.45;98430.59;5032209;28;20656;-72
2022/09/24 09:18:30;;;;;;;14.77;7.95;;;;;;;13.50;65.61;98429.03;5028354;28;20032;-72
2022/09/24 09:21:03;;;;;;;38.85;17.13;;;;;;;13.62;65.13;98420.16;5032984;28;20119;-72
2022/09/24 09:23:37;;;;;;;44.00;21.40;;;;;;;13.74;65.15;98422.31;5031989;28;20022;-73
2022/09/24 09:26:05;;;;;;;42.95;22.90;;;;;;;13.83;65.34;98425.91;5032874;28;20049;-73
2022/09/24 09:28:31;;;;;;;33.65;20.40;;;;;;;13.92;65.15;98426.75;5024524;28;20167;-75
2022/09/24 09:31:24;;;;;;;29.25;18.67;;;;;;;13.98;65.03;98422.72;5029702;28;20025;-74
2022/09/24 09:34:07;;;;;;;29.98;18.33;;;;;;;14.08;64.68;98432.66;5031538;28;20390;-73
2022/09/24 09:36:44;;;;;;;29.85;17.23;;;;;;;14.15;64.64;98426.66;5032043;28;20041;-74
2022/09/24 09:39:31;;;;;;;28.60;18.33;;;;;;;14.19;64.27;98421.31;5032136;28;20060;-74
2022/09/24 09:42:08;;;;;;;41.75;23.10;;;;;;;14.22;64.36;98421.47;5030601;28;20450;-75
2022/09/24 09:44:40;;;;;;;25.50;15.40;;;;;;;14.25;64.52;98418.09;5026852;28;20066;-75
2022/09/24 09:47:31;;;;;;;31.27;19.92;;;;;;;14.31;64.24;98423.44;5009318;28;20483;-75
2022/09/24 09:50:04;;;;;;;33.83;20.45;;;;;;;14.35;64.13;98416.94;5009997;28;20070;-75
2022/09/24 09:52:35;;;;;;;37.40;22.42;;;;;;;14.38;63.90;98423.78;5029119;28;20032;-73
2022/09/24 09:55:04;;;;;;;27.75;17.20;;;;;;;14.42;64.15;98425.56;5020513;28;20089;-73
2022/09/24 09:57:30;;;;;;;30.50;17.27;;;;;;;14.46;63.76;98419.41;5009189;28;20022;-74
2022/09/24 09:59:56;;;;;;;35.05;19.02;;;;;;;14.49;63.76;98424.28;5010366;28;20038;-74
2022/09/24 10:02:29;;;;;;;37.80;21.70;;;;;;;14.51;63.50;98416.50;5009691;28;20044;-74
2022/09/24 10:04:58;;;;;;;37.08;21.45;;;;;;;14.58;63.48;98419.59;5008425;28;20626;-74
2022/09/24 10:07:23;;;;;;;38.08;21.65;;;;;;;14.68;63.03;98421.22;5010753;28;20026;-74
2022/09/24 10:10:16;;;;;;;24.67;13.77;;;;;;;14.76;63.74;98416.84;5009053;28;20050;-74
2022/09/24 10:12:41;;;;;;;30.17;18.50;;;;;;;14.92;63.39;98422.69;5009034;28;20112;-75
2022/09/24 10:15:13;;;;;;;21.35;13.95;;;;;;;15.03;63.49;98412.94;5010597;28;20100;-74
2022/09/24 10:17:39;;;;;;;36.63;22.23;;;;;;;15.14;63.17;98418.91;5009951;28;20389;-74
2022/09/24 10:20:13;;;;;;;133.90;47.85;;;;;;;15.21;62.76;98415.69;5016553;28;20024;-74
2022/09/24 10:22:44;;;;;;;47.22;19.92;;;;;;;15.25;62.64;98416.66;5030560;28;20386;-75
2022/09/24 10:25:23;;;;;;;35.10;14.00;;;;;;;15.26;62.74;98416.31;5023949;28;20025;-74
2022/09/24 10:27:51;;;;;;;39.28;17.15;;;;;;;15.32;62.44;98417.75;5029847;28;20018;-74
2022/09/24 10:30:35;;;;;;;51.63;23.98;;;;;;;15.39;62.32;98402.63;5016957;28;20037;-75
2022/09/24 10:33:05;;;;;;;34.50;17.83;;;;;;;15.50;62.20;98405.84;5013571;28;20025;-73
2022/09/24 10:35:34;;;;;;;37.38;19.50;;;;;;;15.60;61.76;98395.22;5016806;28;20030;-73
2022/09/24 10:38:12;;;;;;;26.05;16.38;;;;;;;15.71;61.82;98390.13;5013221;28;20124;-73
2022/09/24 10:40:39;;;;;;;26.55;15.82;;;;;;;15.81;61.52;98388.97;4994323;28;20018;-73
2022/09/24 10:43:06;;;;;;;28.88;17.90;;;;;;;15.89;61.58;98379.03;4982317;28;20549;-73
2022/09/24 10:45:56;;;;;;;11.45;7.90;;;;;;;15.98;61.40;98388.09;4980575;28;20073;-73
2022/09/24 10:48:25;;;;;;;14.57;9.18;;;;;;;16.07;60.46;98388.03;4985797;28;20034;-74
2022/09/24 10:50:57;;;;;;;16.25;9.50;;;;;;;16.15;60.54;98383.59;4986071;28;20040;-73
2022/09/24 10:53:41;;;;;;;17.80;10.85;;;;;;;16.24;60.69;98381.56;4985173;28;20030;-72
2022/09/24 10:56:26;;;;;;;12.55;8.18;;;;;;;16.37;60.67;98377.75;4984058;28;20100;-72
2022/09/24 10:59:22;;;;;;;12.20;8.38;;;;;;;16.50;60.35;98375.06;4984041;28;20810;-72
2022/09/24 11:01:56;;;;;;;13.65;8.90;;;;;;;16.58;59.68;98374.16;4981826;28;20105;-73
2022/09/24 11:04:24;;;;;;;12.15;7.47;;;;;;;16.57;59.00;98371.75;4979881;28;20061;-73
2022/09/24 11:07:27;;;;;;;15.60;9.05;;;;;;;16.51;58.42;98371.94;4982042;28;20026;-72
2022/09/24 11:10:08;;;;;;;10.95;6.82;;;;;;;16.58;58.72;98381.66;4985965;28;20042;-73
2022/09/24 11:12:59;;;;;;;25.83;13.90;;;;;;;16.62;58.53;98382.59;4982372;28;20739;-73
2022/09/24 11:15:24;;;;;;;24.42;11.98;;;;;;;16.71;57.86;98377.78;4983786;28;20058;-72
2022/09/24 11:18:31;;;;;;;27.27;14.15;;;;;;;16.73;58.26;98377.47;4987504;28;20076;-72
2022/09/24 11:21:30;;;;;;;27.83;14.50;;;;;;;16.79;57.63;98365.03;4983522;28;20411;-72
2022/09/24 11:24:29;;;;;;;24.95;13.07;;;;;;;16.86;57.70;98373.59;4975562;28;20149;-74
2022/09/24 11:27:04;;;;;;;12.57;7.68;;;;;;;16.92;57.36;98374.97;4975430;28;20081;-73
2022/09/24 11:30:08;;;;;;;24.08;12.65;;;;;;;16.95;57.31;98374.31;4996460;28;20438;-73
2022/09/24 11:32:52;;;;;;;25.75;13.23;;;;;;;17.03;56.93;98378.19;4965445;28;20049;-74
2022/09/24 11:35:20;;;;;;;23.00;11.32;;;;;;;17.08;56.74;98377.16;4985947;28;20029;-73
2022/09/24 11:38:18;;;;;;;14.52;8.73;;;;;;;17.10;56.49;98372.91;4986572;28;20056;-73
2022/09/24 11:41:14;;;;;;;42.60;17.38;;;;;;;17.13;56.42;98373.34;4966754;28;20073;-73
2022/09/24 11:43:56;;;;;;;35.42;14.73;;;;;;;17.10;56.08;98380.41;5002965;28;20029;-72
2022/09/24 11:46:50;;;;;;;21.75;12.77;;;;;;;17.10;56.14;98375.69;5014523;28;20489;-72
2022/09/24 11:49:40;;;;;;;6.85;4.22;;;;;;;17.10;55.96;98374.84;5008813;28;20033;-72